Time;durP1;ratioP1;P1;durP2;ratioP2;P2;SDS_P1;SDS_P2;PMS_P1;PMS_P2;Temp;Humidity;BMP_temperature;BMP_pressure;BME280_temperature;BME280_humidity;BME280_pressure;Samples;Min_cycle;Max_cycle;Signal;HPM_P1;HPM_P2
2022/03/14 00:02:11;;;;;;;2.43;1.60;;;;;;;;;;5089496;28;20212;-55
2022/03/14 00:04:37;;;;;;;2.17;1.97;;;;;;;;;;5089114;28;20180;-55
2022/03/14 00:07:04;;;;;;;2.20;2.00;;;;;;;;;;5081125;28;20416;-55
2022/03/14 00:09:31;;;;;;;2.03;1.90;;;;;;;;;;5054753;28;20730;-56
2022/03/14 00:11:57;;;;;;;2.10;2.00;;;;;;;;;;5068828;28;20271;-55
2022/03/14 00:14:26;;;;;;;3.23;1.93;;;;;;;;;;5089295;28;20183;-54
2022/03/14 00:16:55;;;;;;;3.70;2.00;;;;;;;;;;5089140;28;20527;-55
2022/03/14 00:19:22;;;;;;;2.00;1.80;;;;;;;;;;5093477;28;20217;-55
2022/03/14 00:21:49;;;;;;;2.10;2.00;;;;;;;;;;5090046;28;20235;-53
2022/03/14 00:24:15;;;;;;;2.00;1.90;;;;;;;;;;5088436;28;20176;-52
2022/03/14 00:26:41;;;;;;;2.10;1.90;;;;;;;;;;5088464;28;20180;-54
2022/03/14 00:29:08;;;;;;;2.10;1.90;;;;;;;;;;5078530;28;20184;-54
2022/03/14 00:31:34;;;;;;;2.17;1.70;;;;;;;;;;5085296;28;20201;-53
2022/03/14 00:34:00;;;;;;;1.97;1.80;;;;;;;;;;5070337;28;20599;-55
2022/03/14 00:36:27;;;;;;;2.33;2.13;;;;;;;;;;5085250;28;20172;-53
2022/03/14 00:38:53;;;;;;;2.13;1.93;;;;;;;;;;5071344;28;20172;-54
2022/03/14 00:41:20;;;;;;;1.80;1.70;;;;;;;;;;5089255;28;20198;-53
2022/03/14 00:43:46;;;;;;;1.90;1.80;;;;;;;;;;5087220;28;20200;-53
2022/03/14 00:46:14;;;;;;;1.83;1.73;;;;;;;;;;5087871;28;20495;-56
2022/03/14 00:48:40;;;;;;;2.07;1.97;;;;;;;;;;5087884;28;20170;-54
2022/03/14 00:51:06;;;;;;;2.03;1.93;;;;;;;;;;5070623;28;20172;-54
2022/03/14 00:53:32;;;;;;;2.17;2.03;;;;;;;;;;5087285;28;20882;-53
2022/03/14 00:55:59;;;;;;;2.37;2.17;;;;;;;;;;5089100;28;20662;-55
2022/03/14 00:58:26;;;;;;;2.10;2.00;;;;;;;;;;5088528;28;20200;-54
2022/03/14 01:00:52;;;;;;;2.00;1.90;;;;;;;;;;5081388;28;20203;-54
2022/03/14 01:03:18;;;;;;;2.40;2.20;;;;;;;;;;5088059;28;20192;-56
2022/03/14 01:05:44;;;;;;;1.97;1.80;;;;;;;;;;5086565;28;20211;-54
2022/03/14 01:08:10;;;;;;;1.90;1.80;;;;;;;;;;5087796;28;20176;-53
2022/03/14 01:10:36;;;;;;;2.07;1.80;;;;;;;;;;5088382;28;20186;-53
2022/03/14 01:13:03;;;;;;;2.00;1.90;;;;;;;;;;5071786;28;20251;-56
2022/03/14 01:15:29;;;;;;;2.07;1.90;;;;;;;;;;5052249;28;20618;-55
2022/03/14 01:17:56;;;;;;;1.97;1.77;;;;;;;;;;5055963;28;20180;-55
2022/03/14 01:20:22;;;;;;;3.13;1.90;;;;;;;;;;5073317;28;20698;-54
2022/03/14 01:22:48;;;;;;;1.80;1.70;;;;;;;;;;5035941;28;20211;-56
2022/03/14 01:25:14;;;;;;;2.30;2.10;;;;;;;;;;5073455;28;20181;-55
2022/03/14 01:27:40;;;;;;;2.20;1.73;;;;;;;;;;5054516;28;20628;-55
2022/03/14 01:30:06;;;;;;;2.07;1.87;;;;;;;;;;5068251;28;20181;-54
2022/03/14 01:32:32;;;;;;;2.03;1.93;;;;;;;;;;5052539;28;20187;-54
2022/03/14 01:34:58;;;;;;;1.97;1.73;;;;;;;;;;5054841;28;20221;-55
2022/03/14 01:37:24;;;;;;;2.10;1.97;;;;;;;;;;5061149;28;20193;-55
2022/03/14 01:39:50;;;;;;;2.03;1.90;;;;;;;;;;5051001;28;20192;-53
2022/03/14 01:42:17;;;;;;;1.60;1.50;;;;;;;;;;5063272;28;20239;-53
2022/03/14 01:44:44;;;;;;;2.47;2.00;;;;;;;;;;5060570;28;20644;-57
2022/03/14 01:47:11;;;;;;;1.93;1.83;;;;;;;;;;5062430;28;20572;-55
2022/03/14 01:49:37;;;;;;;2.00;1.90;;;;;;;;;;5074591;28;20208;-55
2022/03/14 01:52:05;;;;;;;2.00;1.80;;;;;;;;;;5037945;28;20211;-55
2022/03/14 01:54:31;;;;;;;2.20;2.00;;;;;;;;;;5063012;28;20189;-55
2022/03/14 01:56:59;;;;;;;2.03;1.93;;;;;;;;;;5030466;28;20205;-53
2022/03/14 01:59:26;;;;;;;1.90;1.80;;;;;;;;;;5058067;28;20529;-55
2022/03/14 02:01:52;;;;;;;1.80;1.70;;;;;;;;;;5067558;28;20665;-55
2022/03/14 02:04:18;;;;;;;2.30;1.87;;;;;;;;;;5067723;28;20260;-55
2022/03/14 02:06:46;;;;;;;1.63;1.53;;;;;;;;;;5066186;28;20179;-54
2022/03/14 02:09:12;;;;;;;2.10;2.00;;;;;;;;;;5069612;28;20204;-54
2022/03/14 02:11:38;;;;;;;1.67;1.57;;;;;;;;;;5055968;28;20212;-55
2022/03/14 02:14:06;;;;;;;2.07;1.90;;;;;;;;;;5083355;28;20164;-56
2022/03/14 02:16:32;;;;;;;1.50;1.40;;;;;;;;;;5075765;28;20176;-55
2022/03/14 02:18:58;;;;;;;1.60;1.50;;;;;;;;;;5082974;28;20183;-54
2022/03/14 02:21:24;;;;;;;1.67;1.57;;;;;;;;;;5085936;28;20171;-55
2022/03/14 02:23:50;;;;;;;1.90;1.80;;;;;;;;;;5087218;28;20227;-54
2022/03/14 02:26:18;;;;;;;1.90;1.80;;;;;;;;;;5079509;28;20172;-55
2022/03/14 02:28:44;;;;;;;2.00;1.90;;;;;;;;;;5069484;28;20263;-54
2022/03/14 02:31:10;;;;;;;2.27;1.80;;;;;;;;;;5071612;28;20183;-56
2022/03/14 02:33:36;;;;;;;2.10;1.90;;;;;;;;;;5071188;28;20244;-55
2022/03/14 02:36:02;;;;;;;2.13;1.93;;;;;;;;;;5087355;28;20766;-54
2022/03/14 02:38:28;;;;;;;2.13;1.90;;;;;;;;;;5102482;28;20225;-54
2022/03/14 02:40:54;;;;;;;2.70;2.10;;;;;;;;;;5092388;28;20179;-55
2022/03/14 02:43:24;;;;;;;2.07;1.97;;;;;;;;;;5067495;28;20199;-56
2022/03/14 02:45:52;;;;;;;2.17;2.03;;;;;;;;;;5090966;28;20172;-54
2022/03/14 02:48:18;;;;;;;2.30;2.00;;;;;;;;;;5091027;28;20623;-56
2022/03/14 02:50:48;;;;;;;2.37;2.17;;;;;;;;;;5091304;28;20666;-56
2022/03/14 02:53:15;;;;;;;2.40;2.20;;;;;;;;;;5090074;28;20180;-55
2022/03/14 02:55:41;;;;;;;2.80;2.60;;;;;;;;;;5089743;28;20187;-56
2022/03/14 02:58:12;;;;;;;3.53;2.03;;;;;;;;;;5067231;28;20634;-55
2022/03/14 03:00:39;;;;;;;4.03;2.17;;;;;;;;;;5070219;28;20615;-58
2022/03/14 03:03:10;;;;;;;2.63;2.47;;;;;;;;;;5071320;28;20211;-57
2022/03/14 03:05:37;;;;;;;2.43;2.07;;;;;;;;;;5063854;28;20639;-57
2022/03/14 03:08:04;;;;;;;3.10;2.10;;;;;;;;;;5068507;28;20206;-56
2022/03/14 03:10:32;;;;;;;2.00;1.90;;;;;;;;;;5068012;28;20176;-58
2022/03/14 03:12:59;;;;;;;2.50;2.30;;;;;;;;;;5050179;28;20759;-56
2022/03/14 03:15:26;;;;;;;2.57;2.37;;;;;;;;;;5050434;28;20192;-59
2022/03/14 03:17:55;;;;;;;3.00;2.70;;;;;;;;;;5062152;28;20554;-58
2022/03/14 03:20:25;;;;;;;3.10;2.80;;;;;;;;;;5070014;28;20185;-59
2022/03/14 03:22:52;;;;;;;2.80;2.03;;;;;;;;;;5051272;28;20671;-59
2022/03/14 03:25:19;;;;;;;2.47;2.27;;;;;;;;;;5052646;28;20709;-59
2022/03/14 03:27:46;;;;;;;2.40;2.20;;;;;;;;;;5050249;28;20181;-59
2022/03/14 03:30:12;;;;;;;2.13;1.93;;;;;;;;;;5050622;28;20717;-59
2022/03/14 03:32:39;;;;;;;3.57;2.90;;;;;;;;;;5049111;28;20219;-60
2022/03/14 03:35:08;;;;;;;2.73;2.43;;;;;;;;;;5044677;28;20195;-59
2022/03/14 03:37:37;;;;;;;2.60;2.40;;;;;;;;;;5050873;28;20592;-59
2022/03/14 03:40:04;;;;;;;2.77;2.40;;;;;;;;;;5048623;28;20678;-59
2022/03/14 03:42:30;;;;;;;2.40;2.20;;;;;;;;;;5074363;28;20200;-59
2022/03/14 03:44:56;;;;;;;3.63;2.63;;;;;;;;;;5050365;28;20210;-59
2022/03/14 03:47:24;;;;;;;4.10;3.00;;;;;;;;;;5053276;28;20188;-59
2022/03/14 03:49:50;;;;;;;3.20;2.97;;;;;;;;;;5053707;28;20639;-59
2022/03/14 03:52:17;;;;;;;4.10;3.50;;;;;;;;;;5072614;28;20667;-60
2022/03/14 03:54:43;;;;;;;3.00;2.67;;;;;;;;;;5053367;28;20212;-60
2022/03/14 03:57:09;;;;;;;3.10;2.80;;;;;;;;;;5081540;28;20203;-59
2022/03/14 03:59:35;;;;;;;3.13;2.83;;;;;;;;;;5055404;28;20188;-59
2022/03/14 04:02:04;;;;;;;4.20;3.30;;;;;;;;;;5063369;28;20207;-59
2022/03/14 04:04:30;;;;;;;3.50;3.17;;;;;;;;;;5043281;28;20177;-59
2022/03/14 04:06:57;;;;;;;3.47;3.17;;;;;;;;;;5049833;28;20613;-59
2022/03/14 04:09:26;;;;;;;4.97;3.67;;;;;;;;;;5045069;28;20191;-59
2022/03/14 04:11:58;;;;;;;3.67;3.30;;;;;;;;;;5052020;28;20220;-59
2022/03/14 04:14:25;;;;;;;4.13;3.43;;;;;;;;;;5040247;28;20272;-60
2022/03/14 04:17:00;;;;;;;7.77;7.27;;;;;;;;;;5042599;28;20694;-59
2022/03/14 04:19:29;;;;;;;3.50;3.20;;;;;;;;;;5050805;28;20180;-59
2022/03/14 04:21:55;;;;;;;3.90;3.57;;;;;;;;;;5068867;28;20429;-59
2022/03/14 04:24:22;;;;;;;3.80;3.40;;;;;;;;;;5067150;28;20192;-59
2022/03/14 04:26:49;;;;;;;4.37;3.97;;;;;;;;;;5051600;28;20267;-59
2022/03/14 04:29:16;;;;;;;4.10;3.20;;;;;;;;;;5050820;28;20203;-60
2022/03/14 04:31:46;;;;;;;10.20;9.40;;;;;;;;;;5047066;28;20266;-59
2022/03/14 04:34:12;;;;;;;4.23;3.73;;;;;;;;;;5041787;28;20257;-60
2022/03/14 04:36:39;;;;;;;4.30;3.90;;;;;;;;;;5048714;28;20231;-60
2022/03/14 04:39:23;;;;;;;5.27;4.33;;;;;;;;;;5037114;28;20215;-58
2022/03/14 04:41:51;;;;;;;4.20;3.80;;;;;;;;;;5065510;28;20188;-59
2022/03/14 04:44:17;;;;;;;3.63;3.33;;;;;;;;;;5050098;28;20180;-59
2022/03/14 04:46:44;;;;;;;3.47;3.17;;;;;;;;;;5068274;28;20255;-58
2022/03/14 04:49:11;;;;;;;3.90;3.50;;;;;;;;;;5046092;28;20179;-59
2022/03/14 04:51:40;;;;;;;3.97;3.57;;;;;;;;;;5048111;28;20176;-59
2022/03/14 04:54:07;;;;;;;5.50;3.80;;;;;;;;;;5047036;28;20200;-59
2022/03/14 04:56:39;;;;;;;3.63;3.20;;;;;;;;;;5047120;28;20204;-59
2022/03/14 04:59:06;;;;;;;4.00;3.60;;;;;;;;;;5046302;28;20180;-59
2022/03/14 05:01:39;;;;;;;3.67;3.37;;;;;;;;;;5049274;28;20535;-59
2022/03/14 05:04:06;;;;;;;3.80;3.50;;;;;;;;;;5045267;28;20215;-59
2022/03/14 05:06:32;;;;;;;3.60;3.30;;;;;;;;;;5039538;28;20254;-59
2022/03/14 05:08:59;;;;;;;3.90;3.53;;;;;;;;;;5049776;28;20184;-58
2022/03/14 05:11:32;;;;;;;4.10;3.70;;;;;;;;;;5048627;28;20402;-59
2022/03/14 05:14:05;;;;;;;4.00;3.60;;;;;;;;;;5043709;28;20307;-59
2022/03/14 05:16:34;;;;;;;4.43;3.90;;;;;;;;;;5047961;28;20184;-60
2022/03/14 05:19:00;;;;;;;4.27;3.87;;;;;;;;;;5046371;28;20218;-59
2022/03/14 05:21:27;;;;;;;3.57;3.27;;;;;;;;;;5047983;28;20176;-59
2022/03/14 05:23:56;;;;;;;4.03;3.63;;;;;;;;;;5067665;28;20708;-60
2022/03/14 05:26:23;;;;;;;3.47;3.17;;;;;;;;;;5046892;28;20237;-59
2022/03/14 05:28:49;;;;;;;4.00;3.60;;;;;;;;;;5062743;28;20176;-59
2022/03/14 05:31:16;;;;;;;4.77;3.47;;;;;;;;;;5065899;28;20639;-59
2022/03/14 05:33:43;;;;;;;3.83;3.30;;;;;;;;;;5032841;28;20257;-59
2022/03/14 05:36:09;;;;;;;4.17;3.50;;;;;;;;;;5047479;28;20184;-59
2022/03/14 05:38:35;;;;;;;3.43;3.13;;;;;;;;;;5048876;28;20192;-59
2022/03/14 05:41:02;;;;;;;3.83;3.30;;;;;;;;;;5050424;28;20199;-59
2022/03/14 05:43:36;;;;;;;3.73;3.43;;;;;;;;;;5047216;28;20204;-60
2022/03/14 05:46:04;;;;;;;3.30;3.00;;;;;;;;;;5052147;28;20775;-58
2022/03/14 05:48:32;;;;;;;3.50;3.20;;;;;;;;;;5042889;28;20192;-59
2022/03/14 05:50:59;;;;;;;3.80;3.07;;;;;;;;;;5065414;28;20176;-60
2022/03/14 05:53:26;;;;;;;3.50;3.20;;;;;;;;;;5064361;28;20220;-60
2022/03/14 05:55:52;;;;;;;3.33;3.00;;;;;;;;;;5047413;28;20184;-59
2022/03/14 05:58:19;;;;;;;3.43;3.13;;;;;;;;;;5047562;28;20648;-60
2022/03/14 06:00:48;;;;;;;4.50;4.10;;;;;;;;;;5046356;28;20195;-59
2022/03/14 06:03:15;;;;;;;4.00;3.27;;;;;;;;;;5039468;28;20191;-59
2022/03/14 06:05:42;;;;;;;3.70;3.00;;;;;;;;;;5078158;28;20674;-59
2022/03/14 06:08:08;;;;;;;3.70;3.30;;;;;;;;;;5044434;28;20181;-60
2022/03/14 06:10:38;;;;;;;3.17;2.87;;;;;;;;;;5050183;28;20628;-59
2022/03/14 06:13:04;;;;;;;2.90;2.47;;;;;;;;;;5082266;28;20245;-60
2022/03/14 06:15:33;;;;;;;3.27;2.97;;;;;;;;;;5087687;28;20278;-59
2022/03/14 06:17:59;;;;;;;3.27;2.97;;;;;;;;;;5073219;28;20311;-59
2022/03/14 06:20:26;;;;;;;2.60;2.40;;;;;;;;;;5086507;28;20195;-59
2022/03/14 06:22:52;;;;;;;2.70;2.50;;;;;;;;;;5086816;28;20196;-59
2022/03/14 06:25:19;;;;;;;2.67;2.47;;;;;;;;;;5087357;28;20544;-60
2022/03/14 06:27:46;;;;;;;3.07;2.77;;;;;;;;;;5068163;28;20935;-60
2022/03/14 06:30:13;;;;;;;2.80;2.60;;;;;;;;;;5083876;28;20168;-59
2022/03/14 06:32:40;;;;;;;3.23;2.30;;;;;;;;;;5064881;28;20207;-59
2022/03/14 06:35:08;;;;;;;3.20;2.90;;;;;;;;;;5066069;28;20235;-59
2022/03/14 06:37:35;;;;;;;2.43;2.23;;;;;;;;;;5050553;28;20188;-59
2022/03/14 06:40:02;;;;;;;2.40;2.20;;;;;;;;;;5079769;28;20179;-61
2022/03/14 06:42:29;;;;;;;3.37;2.80;;;;;;;;;;5072252;28;20227;-59
2022/03/14 06:45:02;;;;;;;2.57;2.37;;;;;;;;;;5067349;28;20183;-60
2022/03/14 06:47:28;;;;;;;2.73;2.53;;;;;;;;;;5057774;28;20214;-59
2022/03/14 06:49:54;;;;;;;2.90;2.63;;;;;;;;;;5057210;28;20172;-59
2022/03/14 06:52:20;;;;;;;3.40;2.60;;;;;;;;;;5087002;28;20645;-59
2022/03/14 06:54:46;;;;;;;2.70;2.50;;;;;;;;;;5087411;28;20187;-58
2022/03/14 06:57:12;;;;;;;2.77;2.57;;;;;;;;;;5068849;28;20208;-62
2022/03/14 06:59:38;;;;;;;1.97;1.87;;;;;;;;;;5074580;28;20177;-59
2022/03/14 07:02:05;;;;;;;2.83;2.60;;;;;;;;;;5061063;28;20757;-59
2022/03/14 07:04:31;;;;;;;2.80;2.60;;;;;;;;;;5064385;28;20175;-59
2022/03/14 07:07:01;;;;;;;2.40;2.20;;;;;;;;;;5085264;28;20267;-59
2022/03/14 07:09:27;;;;;;;3.23;2.73;;;;;;;;;;5070690;28;20187;-58
2022/03/14 07:11:53;;;;;;;2.40;2.20;;;;;;;;;;5062603;28;20533;-59
2022/03/14 07:14:20;;;;;;;2.73;2.50;;;;;;;;;;5038738;28;20514;-59
2022/03/14 07:16:47;;;;;;;3.10;2.80;;;;;;;;;;5049738;28;20215;-58
2022/03/14 07:19:13;;;;;;;2.50;2.30;;;;;;;;;;5075516;28;20177;-59
2022/03/14 07:21:42;;;;;;;2.37;2.17;;;;;;;;;;5029524;28;20177;-60
2022/03/14 07:24:09;;;;;;;3.30;3.00;;;;;;;;;;5035856;28;20683;-58
2022/03/14 07:26:35;;;;;;;3.20;2.63;;;;;;;;;;5070301;28;20546;-60
2022/03/14 07:29:02;;;;;;;2.80;2.40;;;;;;;;;;5070076;28;20589;-58
2022/03/14 07:31:28;;;;;;;3.30;3.00;;;;;;;;;;5044646;28;20515;-57
2022/03/14 07:33:54;;;;;;;2.80;2.53;;;;;;;;;;5058017;28;20180;-58
2022/03/14 07:36:20;;;;;;;3.00;2.70;;;;;;;;;;5070158;28;20194;-59
2022/03/14 07:38:47;;;;;;;3.20;2.90;;;;;;;;;;5055005;28;20195;-59
2022/03/14 07:41:13;;;;;;;2.83;2.63;;;;;;;;;;5032736;28;20181;-58
2022/03/14 07:43:41;;;;;;;2.90;2.57;;;;;;;;;;5051056;28;20711;-57
2022/03/14 07:46:07;;;;;;;4.63;3.00;;;;;;;;;;5035429;28;20188;-58
2022/03/14 07:48:34;;;;;;;3.40;3.10;;;;;;;;;;5047904;28;20655;-57
2022/03/14 07:51:03;;;;;;;2.70;2.50;;;;;;;;;;5055546;28;20191;-59
2022/03/14 07:53:30;;;;;;;3.83;2.90;;;;;;;;;;5040543;28;20432;-57
2022/03/14 07:55:56;;;;;;;5.50;2.63;;;;;;;;;;5041471;28;20191;-58
2022/03/14 07:58:22;;;;;;;3.27;2.73;;;;;;;;;;5030003;28;20568;-57
2022/03/14 08:00:49;;;;;;;3.63;2.77;;;;;;;;;;5051913;28;20178;-57
2022/03/14 08:03:18;;;;;;;2.93;2.73;;;;;;;;;;5062422;28;20212;-58
2022/03/14 08:05:46;;;;;;;3.13;2.83;;;;;;;;;;5061807;28;20176;-57
2022/03/14 08:08:15;;;;;;;3.97;2.73;;;;;;;;;;5065110;28;20173;-58
2022/03/14 08:10:42;;;;;;;3.77;2.70;;;;;;;;;;5050868;28;20177;-58
2022/03/14 08:13:08;;;;;;;3.23;2.93;;;;;;;;;;5066275;28;20219;-57
2022/03/14 08:15:38;;;;;;;3.43;2.87;;;;;;;;;;5063952;28;20415;-57
2022/03/14 08:18:08;;;;;;;2.50;2.30;;;;;;;;;;5087359;28;20716;-57
2022/03/14 08:20:35;;;;;;;7.20;3.10;;;;;;;;;;5070134;28;20180;-58
2022/03/14 08:23:03;;;;;;;2.90;2.60;;;;;;;;;;5088773;28;20249;-58
2022/03/14 08:25:30;;;;;;;3.07;2.87;;;;;;;;;;5071834;28;20643;-57
2022/03/14 08:27:57;;;;;;;3.27;2.67;;;;;;;;;;5087345;28;20726;-60
2022/03/14 08:30:23;;;;;;;3.47;2.77;;;;;;;;;;5088703;28;20659;-59
2022/03/14 08:32:50;;;;;;;4.27;3.07;;;;;;;;;;5072641;28;20233;-58
2022/03/14 08:35:19;;;;;;;2.90;2.40;;;;;;;;;;5051081;28;20218;-58
2022/03/14 08:37:46;;;;;;;3.00;2.70;;;;;;;;;;5070266;28;20181;-59
2022/03/14 08:40:13;;;;;;;4.07;3.27;;;;;;;;;;5074041;28;20172;-57
2022/03/14 08:42:40;;;;;;;3.10;2.70;;;;;;;;;;5088203;28;20246;-57
2022/03/14 08:45:08;;;;;;;3.37;3.07;;;;;;;;;;5089567;28;20175;-58
2022/03/14 08:47:35;;;;;;;4.53;3.07;;;;;;;;;;5104387;28;20183;-58
2022/03/14 08:50:02;;;;;;;4.87;2.60;;;;;;;;;;5074432;28;20675;-58
2022/03/14 08:52:31;;;;;;;4.83;2.53;;;;;;;;;;5071560;28;20180;-58
2022/03/14 08:54:58;;;;;;;2.77;2.37;;;;;;;;;;5072169;28;20176;-58
2022/03/14 08:57:25;;;;;;;3.03;2.83;;;;;;;;;;5053713;28;20196;-56
2022/03/14 08:59:51;;;;;;;3.77;2.87;;;;;;;;;;5089412;28;20174;-56
2022/03/14 09:02:17;;;;;;;2.60;2.40;;;;;;;;;;5075953;28;20674;-58
2022/03/14 09:04:43;;;;;;;2.90;2.70;;;;;;;;;;5072074;28;20183;-57
2022/03/14 09:07:10;;;;;;;2.63;2.40;;;;;;;;;;5088245;28;20164;-57
2022/03/14 09:09:36;;;;;;;5.47;3.43;;;;;;;;;;5071592;28;20685;-58
2022/03/14 09:12:03;;;;;;;3.23;2.93;;;;;;;;;;5088998;28;20577;-58
2022/03/14 09:14:32;;;;;;;5.40;2.53;;;;;;;;;;5084217;28;20468;-56
2022/03/14 09:16:59;;;;;;;3.33;3.00;;;;;;;;;;5091330;28;20520;-58
2022/03/14 09:19:27;;;;;;;4.40;3.33;;;;;;;;;;5072755;28;20180;-58
2022/03/14 09:21:57;;;;;;;3.30;2.70;;;;;;;;;;5073040;28;20631;-58
2022/03/14 09:24:24;;;;;;;3.67;3.20;;;;;;;;;;5071343;28;20176;-57
2022/03/14 09:26:50;;;;;;;3.90;3.10;;;;;;;;;;5056108;28;20513;-58
2022/03/14 09:29:17;;;;;;;3.60;3.07;;;;;;;;;;5063969;28;20183;-60
2022/03/14 09:31:43;;;;;;;4.33;2.97;;;;;;;;;;5087904;28;20226;-58
2022/03/14 09:34:09;;;;;;;5.00;2.90;;;;;;;;;;5082520;28;20192;-58
2022/03/14 09:36:35;;;;;;;3.17;2.87;;;;;;;;;;5067473;28;20690;-58
2022/03/14 09:39:01;;;;;;;3.40;2.90;;;;;;;;;;5079642;28;20642;-58
2022/03/14 09:41:27;;;;;;;3.30;2.80;;;;;;;;;;5083357;28;20183;-59
2022/03/14 09:43:55;;;;;;;3.30;3.00;;;;;;;;;;5088955;28;20539;-59
2022/03/14 09:46:22;;;;;;;4.87;3.10;;;;;;;;;;5087992;28;20634;-59
2022/03/14 09:48:50;;;;;;;4.73;3.00;;;;;;;;;;5087768;28;20237;-59
2022/03/14 09:51:22;;;;;;;3.40;3.07;;;;;;;;;;5069079;28;20718;-59
2022/03/14 09:53:49;;;;;;;4.20;3.50;;;;;;;;;;5085735;28;20815;-58
2022/03/14 09:56:15;;;;;;;5.93;3.07;;;;;;;;;;5088426;28;20191;-58
2022/03/14 09:58:45;;;;;;;3.60;2.80;;;;;;;;;;5088623;28;20233;-58
2022/03/14 10:01:11;;;;;;;3.17;2.83;;;;;;;;;;5066834;28;20650;-59
2022/03/14 10:03:37;;;;;;;4.70;3.00;;;;;;;;;;5082861;28;20231;-58
2022/03/14 10:06:04;;;;;;;3.50;3.20;;;;;;;;;;5085915;28;20557;-58
2022/03/14 10:08:32;;;;;;;3.57;2.80;;;;;;;;;;5072844;28;20214;-58
2022/03/14 10:10:59;;;;;;;5.37;3.50;;;;;;;;;;5087928;28;20182;-59
2022/03/14 10:13:25;;;;;;;3.90;3.00;;;;;;;;;;5086296;28;20571;-58
2022/03/14 10:15:52;;;;;;;6.03;2.90;;;;;;;;;;5087393;28;20225;-58
2022/03/14 10:18:19;;;;;;;4.50;2.97;;;;;;;;;;5086346;28;20176;-59
2022/03/14 10:20:58;;;;;;;3.37;2.43;;;;;;;;;;5085373;28;20179;-58
2022/03/14 10:23:38;;;;;;;4.03;2.90;;;;;;;;;;5071892;28;20571;-58
2022/03/14 10:26:06;;;;;;;3.10;2.80;;;;;;;;;;5094338;28;20179;-59
2022/03/14 10:28:38;;;;;;;4.47;3.23;;;;;;;;;;5080194;28;20222;-59
2022/03/14 10:31:05;;;;;;;3.97;3.10;;;;;;;;;;5085061;28;20176;-58
2022/03/14 10:33:32;;;;;;;5.20;3.37;;;;;;;;;;5082640;28;20211;-58
2022/03/14 10:35:59;;;;;;;3.83;2.90;;;;;;;;;;5080111;28;20634;-59
2022/03/14 10:38:26;;;;;;;5.00;3.23;;;;;;;;;;5072048;28;20528;-59
2022/03/14 10:40:53;;;;;;;6.33;3.20;;;;;;;;;;5087284;28;20639;-58
2022/03/14 10:43:24;;;;;;;4.37;3.30;;;;;;;;;;5069444;28;20199;-58
2022/03/14 10:45:50;;;;;;;4.83;3.37;;;;;;;;;;5087187;28;20183;-58
2022/03/14 10:48:17;;;;;;;3.20;2.73;;;;;;;;;;5078798;28;20209;-62
2022/03/14 10:50:43;;;;;;;4.57;3.17;;;;;;;;;;5083944;28;20185;-58
2022/03/14 10:53:11;;;;;;;4.63;3.47;;;;;;;;;;5063081;28;20190;-58
2022/03/14 10:55:40;;;;;;;5.27;3.23;;;;;;;;;;5075568;28;20349;-58
2022/03/14 10:58:11;;;;;;;4.97;2.83;;;;;;;;;;5086793;28;20701;-57
2022/03/14 11:00:51;;;;;;;6.70;3.70;;;;;;;;;;5069760;28;20305;-58
2022/03/14 11:03:24;;;;;;;5.60;3.30;;;;;;;;;;5090429;28;20187;-59
2022/03/14 11:05:51;;;;;;;3.47;3.17;;;;;;;;;;5079316;28;20276;-58
2022/03/14 11:08:36;;;;;;;4.57;3.10;;;;;;;;;;5086551;28;20180;-59
2022/03/14 11:11:07;;;;;;;5.30;3.47;;;;;;;;;;5091581;28;20577;-56
2022/03/14 11:13:37;;;;;;;5.37;3.23;;;;;;;;;;5082958;28;20220;-58
2022/03/14 11:16:03;;;;;;;5.27;3.40;;;;;;;;;;5071660;28;20169;-59
2022/03/14 11:18:30;;;;;;;7.40;4.17;;;;;;;;;;5059957;28;20176;-58
2022/03/14 11:21:00;;;;;;;7.73;3.60;;;;;;;;;;5072780;28;20184;-57
2022/03/14 11:23:27;;;;;;;3.60;3.30;;;;;;;;;;5071746;28;20207;-57
2022/03/14 11:25:54;;;;;;;7.07;3.67;;;;;;;;;;5090818;28;20187;-59
2022/03/14 11:28:21;;;;;;;6.80;3.60;;;;;;;;;;5085146;28;20198;-58
2022/03/14 11:31:13;;;;;;;4.93;3.47;;;;;;;;;;5078395;28;20178;-58
2022/03/14 11:33:41;;;;;;;3.83;3.23;;;;;;;;;;5071464;28;20188;-58
2022/03/14 11:36:08;;;;;;;5.23;3.27;;;;;;;;;;5080210;28;20845;-57
2022/03/14 11:38:34;;;;;;;5.40;3.47;;;;;;;;;;5088886;28;20283;-58
2022/03/14 11:41:01;;;;;;;5.27;3.77;;;;;;;;;;5090476;28;20228;-58
2022/03/14 11:43:28;;;;;;;5.93;3.50;;;;;;;;;;5090370;28;20678;-59
2022/03/14 11:45:55;;;;;;;7.50;3.40;;;;;;;;;;5074370;28;20182;-59
2022/03/14 11:48:23;;;;;;;5.77;3.07;;;;;;;;;;5071475;28;20352;-58
2022/03/14 11:50:56;;;;;;;7.00;4.10;;;;;;;;;;5075843;28;20245;-60
2022/03/14 11:53:25;;;;;;;3.50;3.20;;;;;;;;;;5094371;28;20199;-58
2022/03/14 11:55:57;;;;;;;3.77;3.10;;;;;;;;;;5090931;28;20175;-56
2022/03/14 11:58:43;;;;;;;6.13;3.77;;;;;;;;;;5090261;28;20219;-56
2022/03/14 12:01:18;;;;;;;4.13;3.50;;;;;;;;;;5096679;28;20218;-58
2022/03/14 12:03:54;;;;;;;7.73;3.83;;;;;;;;;;5087160;28;20203;-58
2022/03/14 12:06:39;;;;;;;5.00;3.07;;;;;;;;;;5089144;28;20623;-58
2022/03/14 12:09:05;;;;;;;5.50;3.53;;;;;;;;;;5083558;28;20190;-58
2022/03/14 12:11:36;;;;;;;3.97;3.33;;;;;;;;;;5078375;28;20175;-56
2022/03/14 12:14:03;;;;;;;3.70;3.30;;;;;;;;;;5090451;28;20211;-58
2022/03/14 12:16:39;;;;;;;3.90;3.50;;;;;;;;;;5089831;28;20246;-57
2022/03/14 12:19:24;;;;;;;5.40;4.20;;;;;;;;;;5084514;28;20664;-59
2022/03/14 12:21:52;;;;;;;5.07;3.33;;;;;;;;;;5089150;28;20700;-58
2022/03/14 12:24:42;;;;;;;4.27;3.50;;;;;;;;;;5089939;28;20210;-58
2022/03/14 12:27:15;;;;;;;3.83;3.50;;;;;;;;;;5081041;28;20187;-57
2022/03/14 12:29:42;;;;;;;5.00;3.60;;;;;;;;;;5087187;28;20172;-58
2022/03/14 12:32:23;;;;;;;5.20;3.40;;;;;;;;;;5089413;28;20247;-58
2022/03/14 12:34:56;;;;;;;4.70;3.70;;;;;;;;;;5085269;28;20203;-58
2022/03/14 12:37:39;;;;;;;4.73;3.50;;;;;;;;;;5087482;28;20263;-57
2022/03/14 12:40:06;;;;;;;4.40;3.20;;;;;;;;;;5078137;28;20588;-58
2022/03/14 12:42:45;;;;;;;6.93;3.43;;;;;;;;;;5089550;28;20196;-58
2022/03/14 12:45:14;;;;;;;5.63;4.10;;;;;;;;;;5082765;28;20551;-56
2022/03/14 12:47:41;;;;;;;5.07;3.10;;;;;;;;;;5094188;28;20184;-57
2022/03/14 12:50:08;;;;;;;6.43;4.20;;;;;;;;;;5089198;28;20516;-57
2022/03/14 12:52:54;;;;;;;5.07;3.37;;;;;;;;;;5088210;28;20184;-58
2022/03/14 12:55:20;;;;;;;4.63;3.50;;;;;;;;;;5084078;28;20175;-59
2022/03/14 12:57:53;;;;;;;6.87;3.67;;;;;;;;;;5089176;28;20183;-57
2022/03/14 13:00:19;;;;;;;4.03;3.63;;;;;;;;;;5089082;28;20183;-56
2022/03/14 13:02:45;;;;;;;6.07;3.80;;;;;;;;;;5069264;28;20231;-56
2022/03/14 13:05:11;;;;;;;5.00;3.60;;;;;;;;;;5088798;28;20716;-58
2022/03/14 13:07:37;;;;;;;6.17;3.60;;;;;;;;;;5087602;28;20163;-58
2022/03/14 13:10:03;;;;;;;3.83;3.27;;;;;;;;;;5103266;28;20564;-58
2022/03/14 13:12:30;;;;;;;4.67;3.53;;;;;;;;;;5063410;28;20220;-57
2022/03/14 13:15:06;;;;;;;4.40;3.80;;;;;;;;;;5088363;28;20251;-57
2022/03/14 13:17:32;;;;;;;4.00;3.47;;;;;;;;;;5089105;28;20171;-58
2022/03/14 13:19:59;;;;;;;4.60;3.67;;;;;;;;;;5082634;28;20191;-58
2022/03/14 13:22:26;;;;;;;4.07;3.50;;;;;;;;;;5086212;28;20246;-58
2022/03/14 13:24:53;;;;;;;5.53;3.97;;;;;;;;;;5074987;28;20182;-57
2022/03/14 13:27:24;;;;;;;4.47;3.70;;;;;;;;;;5089400;28;20172;-58
2022/03/14 13:29:51;;;;;;;5.63;3.67;;;;;;;;;;5067324;28;20187;-59
2022/03/14 13:32:20;;;;;;;6.67;3.60;;;;;;;;;;5073458;28;20553;-57
2022/03/14 13:35:11;;;;;;;3.90;3.47;;;;;;;;;;5060017;28;20180;-58
2022/03/14 13:37:48;;;;;;;10.07;3.63;;;;;;;;;;5068616;28;20554;-57
2022/03/14 13:40:18;;;;;;;6.97;3.93;;;;;;;;;;5073411;28;20203;-57
2022/03/14 13:42:45;;;;;;;6.40;3.73;;;;;;;;;;5088007;28;20745;-57
2022/03/14 13:45:12;;;;;;;3.13;2.83;;;;;;;;;;5062831;28;20181;-59
2022/03/14 13:47:40;;;;;;;5.63;3.80;;;;;;;;;;5073185;28;20183;-57
2022/03/14 13:50:06;;;;;;;4.23;3.67;;;;;;;;;;5069451;28;20191;-58
2022/03/14 13:52:33;;;;;;;4.27;3.63;;;;;;;;;;5087648;28;20642;-58
2022/03/14 13:54:59;;;;;;;5.67;3.60;;;;;;;;;;5085480;28;20270;-57
2022/03/14 13:57:25;;;;;;;6.90;3.40;;;;;;;;;;5061622;28;20687;-57
2022/03/14 13:59:52;;;;;;;7.37;3.60;;;;;;;;;;5086529;28;20183;-59
2022/03/14 14:02:22;;;;;;;7.47;3.53;;;;;;;;;;5081850;28;20209;-58
2022/03/14 14:04:51;;;;;;;3.53;3.23;;;;;;;;;;5069257;28;20321;-57
2022/03/14 14:07:24;;;;;;;3.80;3.40;;;;;;;;;;5083287;28;20168;-58
2022/03/14 14:09:51;;;;;;;4.87;3.37;;;;;;;;;;5076974;28;20183;-59
2022/03/14 14:12:24;;;;;;;5.90;4.07;;;;;;;;;;5087023;28;20587;-58
2022/03/14 14:14:52;;;;;;;4.63;3.30;;;;;;;;;;5075538;28;20206;-57
2022/03/14 14:17:19;;;;;;;5.27;4.27;;;;;;;;;;5086656;28;20172;-56
2022/03/14 14:20:04;;;;;;;5.10;3.63;;;;;;;;;;5085507;28;20649;-58
2022/03/14 14:22:30;;;;;;;4.03;3.43;;;;;;;;;;5078192;28;20203;-56
2022/03/14 14:24:57;;;;;;;4.07;3.20;;;;;;;;;;5090740;28;20211;-59
2022/03/14 14:27:26;;;;;;;4.10;3.63;;;;;;;;;;5093827;28;20197;-56
2022/03/14 14:29:56;;;;;;;4.27;3.87;;;;;;;;;;5092998;28;20210;-58
2022/03/14 14:32:22;;;;;;;6.07;3.37;;;;;;;;;;5089754;28;20184;-57
2022/03/14 14:34:49;;;;;;;5.30;3.97;;;;;;;;;;5089837;28;20233;-55
2022/03/14 14:37:15;;;;;;;4.20;3.80;;;;;;;;;;5088315;28;20586;-57
2022/03/14 14:39:42;;;;;;;3.73;3.40;;;;;;;;;;5092306;28;20175;-57
2022/03/14 14:42:12;;;;;;;5.40;3.70;;;;;;;;;;5056598;28;20544;-56
2022/03/14 14:44:39;;;;;;;5.50;3.77;;;;;;;;;;5091648;28;20163;-56
2022/03/14 14:47:05;;;;;;;8.50;3.60;;;;;;;;;;5090666;28;20172;-56
2022/03/14 14:49:32;;;;;;;5.03;3.03;;;;;;;;;;5089076;28;21026;-56